createdAt,value
2022-12-15T00:01:59.309Z,96931.44
2022-12-15T00:04:44.308Z,96934.34
2022-12-15T00:07:29.157Z,96924.59
2022-12-15T00:10:14.133Z,96928.66
2022-12-15T00:12:59.107Z,96944.28
2022-12-15T00:15:44.046Z,96943.31
2022-12-15T00:18:29.195Z,96940.69
2022-12-15T00:21:18.167Z,96942.81
2022-12-15T00:24:03.071Z,96938.94
2022-12-15T00:26:48.088Z,96949.03
2022-12-15T00:29:33.072Z,96952.78
2022-12-15T00:32:17.702Z,96960.09
2022-12-15T00:35:02.540Z,96962.22
2022-12-15T00:37:47.433Z,96962.53
2022-12-15T00:40:13.988Z,96961.72
2022-12-15T00:42:40.404Z,96964.97
2022-12-15T00:45:07.548Z,96985.41
2022-12-15T00:47:34.269Z,96977.91
2022-12-15T00:50:19.392Z,96979.69
2022-12-15T00:53:04.101Z,96989.66
2022-12-15T00:55:49.169Z,96989.03
2022-12-15T00:58:34.451Z,96976.44
2022-12-15T01:01:28.018Z,96987.19
2022-12-15T01:04:13.767Z,96996.81
2022-12-15T01:06:58.789Z,96989.16
2022-12-15T01:09:43.638Z,96990.97
2022-12-15T01:12:28.447Z,96998.97
2022-12-15T01:15:13.169Z,97003.06
2022-12-15T01:17:58.059Z,97000.13
2022-12-15T01:20:24.586Z,97020.34
2022-12-15T01:22:54.223Z,97020.53
2022-12-15T01:25:23.959Z,97027.72
2022-12-15T01:27:50.977Z,97028.22
2022-12-15T01:30:23.953Z,97023.13
2022-12-15T01:32:51.131Z,97016.78
2022-12-15T01:35:18.182Z,97026.56
2022-12-15T01:37:45.255Z,97038.78
2022-12-15T01:40:34.317Z,97039.28
2022-12-15T01:43:01.302Z,97042.69
2022-12-15T01:45:30.290Z,97039.75
2022-12-15T01:48:02.688Z,97026.91
2022-12-15T01:50:32.677Z,97021.03
2022-12-15T01:52:59.533Z,97032.91
2022-12-15T01:55:30.401Z,97035.88
2022-12-15T01:58:02.323Z,97052.03
2022-12-15T02:00:29.966Z,97060.84
2022-12-15T02:02:59.125Z,97064.75
2022-12-15T02:05:25.618Z,97072.09
2022-12-15T02:07:52.206Z,97077.78
2022-12-15T02:10:18.747Z,97077.63
2022-12-15T02:13:15.743Z,97074.84
2022-12-15T02:16:02.126Z,97072.41
2022-12-15T02:18:41.732Z,97071.91
2022-12-15T02:21:17.632Z,97073.03
2022-12-15T02:24:14.221Z,97067.00
2022-12-15T02:27:12.201Z,97065.22
2022-12-15T02:30:06.301Z,97077.13
2022-12-15T02:32:46.498Z,97077.78
2022-12-15T02:35:17.432Z,97062.59
2022-12-15T02:37:44.962Z,97065.38
2022-12-15T02:40:16.309Z,97080.88
2022-12-15T02:42:48.216Z,97083.47
2022-12-15T02:45:19.907Z,97095.69
2022-12-15T02:48:14.972Z,97090.94
2022-12-15T02:50:51.418Z,97099.75
2022-12-15T02:53:31.630Z,97099.75
2022-12-15T02:56:24.455Z,97081.66
2022-12-15T02:59:01.067Z,97086.88
2022-12-15T03:01:36.811Z,97088.34
2022-12-15T03:04:06.882Z,97090.50
2022-12-15T03:06:33.245Z,97091.63
2022-12-15T03:08:59.680Z,97099.78
2022-12-15T03:11:26.034Z,97107.28
2022-12-15T03:13:53.875Z,97107.78
2022-12-15T03:16:20.788Z,97104.19
2022-12-15T03:18:47.256Z,97101.75
2022-12-15T03:21:13.933Z,97106.81
2022-12-15T03:23:40.261Z,97094.41
2022-12-15T03:26:06.974Z,97101.94
2022-12-15T03:28:33.931Z,97109.94
2022-12-15T03:31:00.271Z,97119.06
2022-12-15T03:33:26.716Z,97127.06
2022-12-15T03:35:53.131Z,97121.19
2022-12-15T03:38:19.521Z,97111.56
2022-12-15T03:40:45.842Z,97128.69
2022-12-15T03:43:12.466Z,97122.16
2022-12-15T03:45:38.854Z,97124.78
2022-12-15T03:48:05.299Z,97118.41
2022-12-15T03:50:31.671Z,97115.31
2022-12-15T03:53:01.137Z,97115.66
2022-12-15T03:55:28.834Z,97106.84
2022-12-15T03:57:55.853Z,97110.88
2022-12-15T04:00:24.455Z,97127.03
2022-12-15T04:02:51.681Z,97120.16
2022-12-15T04:05:22.989Z,97117.72
2022-12-15T04:07:49.437Z,97115.13
2022-12-15T04:10:16.094Z,97120.50
2022-12-15T04:12:42.476Z,97120.97
2022-12-15T04:15:11.006Z,97123.44
2022-12-15T04:17:37.936Z,97129.63
2022-12-15T04:20:12.032Z,97124.09
2022-12-15T04:22:45.669Z,97148.09
2022-12-15T04:25:33.769Z,97146.47
2022-12-15T04:28:19.016Z,97156.59
2022-12-15T04:31:10.846Z,97163.75
2022-12-15T04:33:59.813Z,97162.91
2022-12-15T04:36:46.550Z,97163.59
2022-12-15T04:39:31.513Z,97165.25
2022-12-15T04:42:19.226Z,97153.34
2022-12-15T04:45:06.421Z,97158.72
2022-12-15T04:47:51.266Z,97152.72
2022-12-15T04:50:36.103Z,97158.75
2022-12-15T04:53:33.990Z,97147.13
2022-12-15T04:56:20.343Z,97156.44
2022-12-15T04:59:06.206Z,97155.13
2022-12-15T05:01:52.117Z,97166.00
2022-12-15T05:04:37.665Z,97181.06
2022-12-15T05:07:22.994Z,97172.91
2022-12-15T05:10:14.337Z,97182.09
2022-12-15T05:12:59.989Z,97178.66
2022-12-15T05:15:44.868Z,97183.22
2022-12-15T05:18:29.668Z,97180.94
2022-12-15T05:21:16.340Z,97170.81
2022-12-15T05:24:01.696Z,97183.88
2022-12-15T05:26:52.360Z,97183.91
2022-12-15T05:29:38.356Z,97179.00
2022-12-15T05:32:04.898Z,97190.94
2022-12-15T05:34:34.359Z,97196.63
2022-12-15T05:37:02.354Z,97199.41
2022-12-15T05:39:29.441Z,97200.06
2022-12-15T05:41:56.774Z,97213.94
2022-12-15T05:44:24.921Z,97235.81
2022-12-15T05:46:51.626Z,97233.38
2022-12-15T05:49:18.738Z,97217.41
2022-12-15T05:51:48.030Z,97213.47
2022-12-15T05:54:19.471Z,97211.19
2022-12-15T05:56:47.267Z,97208.09
2022-12-15T05:59:16.781Z,97218.03
2022-12-15T06:01:43.371Z,97212.66
2022-12-15T06:04:12.219Z,97208.88
2022-12-15T06:06:39.821Z,97215.59
2022-12-15T06:09:06.838Z,97219.84
2022-12-15T06:11:33.260Z,97222.56
2022-12-15T06:13:59.620Z,97226.81
2022-12-15T06:16:28.078Z,97234.81
2022-12-15T06:18:58.765Z,97244.44
2022-12-15T06:21:28.687Z,97250.00
2022-12-15T06:23:56.938Z,97240.03
2022-12-15T06:26:27.188Z,97241.88
2022-12-15T06:28:56.945Z,97235.19
2022-12-15T06:31:25.401Z,97240.56
2022-12-15T06:34:01.367Z,97245.13
2022-12-15T06:36:29.091Z,97247.59
2022-12-15T06:39:00.552Z,97248.06
2022-12-15T06:41:27.459Z,97250.19
2022-12-15T06:43:57.443Z,97257.22
2022-12-15T06:46:25.441Z,97261.94
2022-12-15T06:48:52.064Z,97252.81
2022-12-15T06:51:18.771Z,97253.78
2022-12-15T06:53:48.887Z,97262.59
2022-12-15T06:56:22.462Z,97254.59
2022-12-15T06:58:52.807Z,97245.91
2022-12-15T07:01:24.181Z,97255.38
2022-12-15T07:03:52.491Z,97251.63
2022-12-15T07:06:19.344Z,97249.13
2022-12-15T07:08:52.315Z,97245.19
2022-12-15T07:11:19.773Z,97245.22
2022-12-15T07:13:51.761Z,97263.38
2022-12-15T07:16:19.056Z,97264.34
2022-12-15T07:18:45.736Z,97267.78
2022-12-15T07:21:12.121Z,97275.81
2022-12-15T07:23:54.302Z,97282.53
2022-12-15T07:26:21.707Z,97289.38
2022-12-15T07:28:48.065Z,97291.84
2022-12-15T07:31:15.438Z,97285.97
2022-12-15T07:33:42.257Z,97285.31
2022-12-15T07:36:08.820Z,97295.91
2022-12-15T07:38:35.459Z,97292.00
2022-12-15T07:41:07.626Z,97288.75
2022-12-15T07:43:35.211Z,97291.69
2022-12-15T07:46:02.306Z,97283.50
2022-12-15T07:48:29.274Z,97287.44
2022-12-15T07:51:04.962Z,97304.41
2022-12-15T07:53:36.168Z,97303.16
2022-12-15T07:56:07.983Z,97317.69
2022-12-15T07:58:36.297Z,97304.28
2022-12-15T08:01:05.512Z,97297.91
2022-12-15T08:03:32.692Z,97300.69
2022-12-15T08:06:04.560Z,97302.50
2022-12-15T08:08:32.028Z,97307.09
2022-12-15T08:10:58.668Z,97304.63
2022-12-15T08:14:00.708Z,97299.38
2022-12-15T08:16:12.311Z,97306.78
2022-12-15T08:18:39.600Z,97313.28
2022-12-15T08:21:09.516Z,97319.81
2022-12-15T08:23:36.795Z,97326.19
2022-12-15T08:26:13.422Z,97323.09
2022-12-15T08:28:41.372Z,97333.38
2022-12-15T08:31:09.264Z,97339.28
2022-12-15T08:33:36.394Z,97342.22
2022-12-15T08:36:06.385Z,97329.00
2022-12-15T08:38:32.996Z,97330.78
2022-12-15T08:41:10.927Z,97334.72
2022-12-15T08:43:42.571Z,97341.75
2022-12-15T08:46:14.160Z,97353.69
2022-12-15T08:48:40.672Z,97348.97
2022-12-15T08:51:07.866Z,97355.00
2022-12-15T08:53:34.474Z,97349.59
2022-12-15T08:56:12.858Z,97357.41
2022-12-15T08:58:39.855Z,97355.63
2022-12-15T09:01:09.580Z,97362.31
2022-12-15T09:03:37.723Z,97356.75
2022-12-15T09:06:04.942Z,97367.56
2022-12-15T09:08:31.560Z,97364.47
2022-12-15T09:10:59.886Z,97364.47
2022-12-15T09:13:27.349Z,97374.25
2022-12-15T09:16:10.763Z,97372.47
2022-12-15T09:18:38.098Z,97384.06
2022-12-15T09:21:07.437Z,97384.38
2022-12-15T09:23:35.724Z,97382.56
2022-12-15T09:26:08.161Z,97386.66
2022-12-15T09:28:35.172Z,97396.09
2022-12-15T09:31:10.424Z,97403.94
2022-12-15T09:33:37.747Z,97395.03
2022-12-15T09:36:04.696Z,97384.50
2022-12-15T09:38:32.962Z,97381.06
2022-12-15T09:41:08.116Z,97367.31
2022-12-15T09:43:36.317Z,97360.78
2022-12-15T09:46:26.362Z,97354.91
2022-12-15T09:48:55.788Z,97359.31
2022-12-15T09:51:30.120Z,97362.25
2022-12-15T09:53:57.017Z,97365.56
2022-12-15T09:56:42.158Z,97353.25
2022-12-15T09:59:22.095Z,97338.94
2022-12-15T10:02:13.965Z,97339.63
2022-12-15T10:04:50.730Z,97349.34
2022-12-15T10:07:36.154Z,97347.19
2022-12-15T10:10:40.779Z,97353.09
2022-12-15T10:13:14.535Z,97352.13
2022-12-15T10:16:03.038Z,97351.66
2022-12-15T10:18:39.950Z,97359.50
2022-12-15T10:21:28.896Z,97342.31
2022-12-15T10:24:09.840Z,97339.69
2022-12-15T10:26:36.375Z,97337.09
2022-12-15T10:29:08.707Z,97333.31
2022-12-15T10:32:00.380Z,97333.31
2022-12-15T10:34:33.517Z,97340.53
2022-12-15T10:37:00.551Z,97335.16
2022-12-15T10:39:41.248Z,97314.72
2022-12-15T10:42:14.818Z,97323.19
2022-12-15T10:44:48.536Z,97308.91
2022-12-15T10:47:23.605Z,97314.97
2022-12-15T10:49:50.472Z,97309.91
2022-12-15T10:52:23.328Z,97310.56
2022-12-15T10:54:52.472Z,97308.56
2022-12-15T10:57:31.665Z,97301.69
2022-12-15T11:00:13.240Z,97298.75
2022-12-15T11:02:42.044Z,97291.88
2022-12-15T11:05:15.649Z,97292.69
2022-12-15T11:07:49.856Z,97286.34
2022-12-15T11:10:23.111Z,97288.31
2022-12-15T11:13:08.432Z,97294.72
2022-12-15T11:15:39.429Z,97294.53
2022-12-15T11:18:24.331Z,97294.38
2022-12-15T11:20:56.770Z,97283.72
2022-12-15T11:23:48.586Z,97283.53
2022-12-15T11:26:46.824Z,97285.34
2022-12-15T11:29:41.924Z,97285.47
2022-12-15T11:32:11.759Z,97291.34
2022-12-15T11:34:50.149Z,97286.00
2022-12-15T11:37:41.591Z,97288.66
2022-12-15T11:40:32.979Z,97283.41
2022-12-15T11:43:18.466Z,97273.59
2022-12-15T11:45:50.942Z,97277.84
2022-12-15T11:48:37.956Z,97280.91
2022-12-15T11:51:23.858Z,97269.19
2022-12-15T11:53:56.156Z,97273.47
2022-12-15T11:56:45.668Z,97274.28
2022-12-15T11:59:34.406Z,97272.66
2022-12-15T12:02:12.807Z,97257.00
2022-12-15T12:04:57.818Z,97240.84
2022-12-15T12:07:41.812Z,97238.22
2022-12-15T12:10:53.487Z,97232.72
2022-12-15T12:13:35.016Z,97235.53
2022-12-15T12:16:47.159Z,97244.94
2022-12-15T12:19:21.661Z,97249.47
2022-12-15T12:21:50.766Z,97255.25
2022-12-15T12:24:33.098Z,97254.66
2022-12-15T12:27:12.635Z,97253.22
2022-12-15T12:30:05.375Z,97254.56
2022-12-15T12:32:43.984Z,97246.06
2022-12-15T12:35:48.808Z,97240.13
2022-12-15T12:38:20.988Z,97238.75
2022-12-15T12:41:07.096Z,97239.19
2022-12-15T12:43:38.014Z,97242.50
2022-12-15T12:46:28.312Z,97250.66
2022-12-15T12:49:21.344Z,97241.81
2022-12-15T12:51:54.501Z,97229.88
2022-12-15T12:54:35.975Z,97223.47
2022-12-15T12:57:11.473Z,97226.81
2022-12-15T12:59:52.199Z,97221.44
2022-12-15T13:02:22.238Z,97207.69
2022-12-15T13:05:00.616Z,97191.88
2022-12-15T13:07:31.477Z,97182.63
2022-12-15T13:10:20.168Z,97183.34
2022-12-15T13:12:52.898Z,97178.00
2022-12-15T13:15:29.112Z,97172.38
2022-12-15T13:18:01.034Z,97160.16
2022-12-15T13:20:30.569Z,97163.69
2022-12-15T13:23:37.664Z,97160.13
2022-12-15T13:26:11.794Z,97160.47
2022-12-15T13:28:39.101Z,97167.81
2022-12-15T13:31:21.977Z,97166.88
2022-12-15T13:33:52.400Z,97172.00
2022-12-15T13:36:37.667Z,97179.59
2022-12-15T13:39:16.406Z,97177.44
2022-12-15T13:42:31.608Z,97183.41
2022-12-15T13:44:43.884Z,97182.34
2022-12-15T13:47:29.766Z,97178.38
2022-12-15T13:50:44.904Z,97180.66
2022-12-15T13:53:21.678Z,97179.78
2022-12-15T13:56:03.676Z,97176.97
2022-12-15T13:58:39.405Z,97177.78
2022-12-15T14:01:19.373Z,97172.44
2022-12-15T14:04:04.695Z,97173.91
2022-12-15T14:06:40.575Z,97169.63
2022-12-15T14:09:14.335Z,97159.84
2022-12-15T14:11:58.624Z,97161.03
2022-12-15T14:14:31.498Z,97163.31
2022-12-15T14:17:00.751Z,97160.38
2022-12-15T14:19:40.787Z,97159.06
2022-12-15T14:22:27.969Z,97161.25
2022-12-15T14:25:23.110Z,97158.88
2022-12-15T14:27:51.081Z,97159.28
2022-12-15T14:30:29.671Z,97159.00
2022-12-15T14:33:03.013Z,97155.88
2022-12-15T14:35:33.830Z,97159.63
2022-12-15T14:38:02.770Z,97168.31
2022-12-15T14:40:29.872Z,97167.56
2022-12-15T14:42:56.643Z,97165.81
2022-12-15T14:45:31.183Z,97166.63
2022-12-15T14:48:40.679Z,97173.72
2022-12-15T14:51:12.404Z,97165.59
2022-12-15T14:53:42.081Z,97175.16
2022-12-15T14:56:25.764Z,97170.72
2022-12-15T14:58:59.872Z,97173.72
2022-12-15T15:01:40.991Z,97182.22
2022-12-15T15:04:24.705Z,97179.59
2022-12-15T15:06:56.381Z,97169.47
2022-12-15T15:09:28.963Z,97165.25
2022-12-15T15:12:08.001Z,97148.94
2022-12-15T15:14:44.165Z,97153.19
2022-12-15T15:17:13.653Z,97139.00
2022-12-15T15:19:48.313Z,97127.03
2022-12-15T15:22:25.972Z,97128.19
2022-12-15T15:24:52.819Z,97126.91
2022-12-15T15:27:35.778Z,97137.34
2022-12-15T15:30:18.515Z,97129.34
2022-12-15T15:32:56.512Z,97131.47
2022-12-15T15:35:31.920Z,97124.63
2022-12-15T15:38:04.882Z,97131.81
2022-12-15T15:40:31.313Z,97135.22
2022-12-15T15:42:57.675Z,97147.13
2022-12-15T15:45:24.818Z,97150.91
2022-12-15T15:47:56.155Z,97141.25
2022-12-15T15:50:27.899Z,97147.09
2022-12-15T15:52:54.471Z,97149.22
2022-12-15T15:55:27.204Z,97153.13
2022-12-15T15:57:53.720Z,97154.94
2022-12-15T16:00:24.559Z,97154.13
2022-12-15T16:02:51.852Z,97161.16
2022-12-15T16:05:18.415Z,97163.59
2022-12-15T16:07:46.528Z,97161.50
2022-12-15T16:10:19.731Z,97153.34
2022-12-15T16:12:52.724Z,97153.03
2022-12-15T16:15:25.859Z,97157.94
2022-12-15T16:17:53.311Z,97157.47
2022-12-15T16:20:22.067Z,97157.63
2022-12-15T16:22:57.156Z,97160.06
2022-12-15T16:25:44.074Z,97157.78
2022-12-15T16:28:17.415Z,97146.47
2022-12-15T16:30:44.480Z,97145.19
2022-12-15T16:33:12.100Z,97135.41
2022-12-15T16:35:40.393Z,97133.94
2022-12-15T16:38:14.947Z,97132.97
2022-12-15T16:40:41.643Z,97140.63
2022-12-15T16:43:16.168Z,97135.09
2022-12-15T16:45:45.031Z,97136.25
2022-12-15T16:48:12.345Z,97129.69
2022-12-15T16:50:41.330Z,97133.94
2022-12-15T16:53:15.725Z,97129.88
2022-12-15T16:55:43.245Z,97126.59
2022-12-15T16:58:17.168Z,97125.94
2022-12-15T17:00:44.863Z,97131.84
2022-12-15T17:03:16.251Z,97126.09
2022-12-15T17:05:45.250Z,97109.63
2022-12-15T17:08:24.332Z,97112.72
2022-12-15T17:10:51.526Z,97105.38
2022-12-15T17:13:37.693Z,97106.38
2022-12-15T17:16:06.293Z,97111.88
2022-12-15T17:18:34.043Z,97116.78
2022-12-15T17:21:13.256Z,97116.63
2022-12-15T17:23:42.009Z,97113.34
2022-12-15T17:26:28.705Z,97126.91
2022-12-15T17:28:58.688Z,97132.78
2022-12-15T17:31:30.304Z,97136.41
2022-12-15T17:34:02.508Z,97139.50
2022-12-15T17:36:29.184Z,97130.69
2022-12-15T17:39:00.629Z,97130.34
2022-12-15T17:41:59.182Z,97128.88
2022-12-15T17:44:38.932Z,97132.81
2022-12-15T17:47:08.083Z,97140.47
2022-12-15T17:49:37.301Z,97128.41
2022-12-15T17:52:24.156Z,97121.38
2022-12-15T17:54:51.692Z,97119.88
2022-12-15T17:57:18.291Z,97116.78
2022-12-15T17:59:44.716Z,97099.00
2022-12-15T18:02:14.777Z,97095.09
2022-12-15T18:04:42.235Z,97095.56
2022-12-15T18:07:16.858Z,97080.72
2022-12-15T18:09:43.384Z,97074.03
2022-12-15T18:12:18.144Z,97070.13
2022-12-15T18:14:44.652Z,97071.75
2022-12-15T18:17:11.100Z,97061.47
2022-12-15T18:19:37.476Z,97062.47
2022-12-15T18:22:04.339Z,97054.13
2022-12-15T18:24:30.809Z,97050.69
2022-12-15T18:26:57.249Z,97058.03
2022-12-15T18:29:23.628Z,97058.06
2022-12-15T18:31:50.076Z,97058.22
2022-12-15T18:34:18.748Z,97059.53
2022-12-15T18:36:45.057Z,97061.78
2022-12-15T18:39:20.729Z,97058.53
2022-12-15T18:41:48.178Z,97061.66
2022-12-15T18:44:22.783Z,97054.31
2022-12-15T18:46:49.267Z,97049.91
2022-12-15T18:49:17.962Z,97048.41
2022-12-15T18:51:46.305Z,97041.41
2022-12-15T18:54:24.135Z,97048.09
2022-12-15T18:56:51.626Z,97043.69
2022-12-15T18:59:19.016Z,97041.91
2022-12-15T19:01:47.832Z,97043.97
2022-12-15T19:04:15.490Z,97039.91
2022-12-15T19:06:43.034Z,97033.22
2022-12-15T19:09:23.167Z,97035.34
2022-12-15T19:12:09.383Z,97043.16
2022-12-15T19:14:41.458Z,97045.28
2022-12-15T19:17:31.535Z,97045.47
2022-12-15T19:20:16.429Z,97036.69
2022-12-15T19:22:44.143Z,97045.81
2022-12-15T19:25:25.377Z,97029.34
2022-12-15T19:27:52.551Z,97017.59
2022-12-15T19:30:19.890Z,97014.19
2022-12-15T19:32:46.236Z,97021.81
2022-12-15T19:35:12.741Z,97027.34
2022-12-15T19:37:42.733Z,97020.84
2022-12-15T19:40:22.195Z,97027.50
2022-12-15T19:42:49.221Z,97015.63
2022-12-15T19:45:18.273Z,97013.16
2022-12-15T19:47:45.139Z,97012.84
2022-12-15T19:50:22.843Z,97010.56
2022-12-15T19:52:53.050Z,97001.28
2022-12-15T19:55:25.758Z,97000.78
2022-12-15T19:57:52.551Z,97004.84
2022-12-15T20:00:21.989Z,96995.56
2022-12-15T20:02:51.312Z,96988.06
2022-12-15T20:05:19.252Z,96978.78
2022-12-15T20:07:47.146Z,96974.53
2022-12-15T20:10:31.762Z,96980.56
2022-12-15T20:12:59.576Z,96979.25
2022-12-15T20:15:26.296Z,96975.19
2022-12-15T20:17:58.644Z,96973.72
2022-12-15T20:20:27.945Z,96965.88
2022-12-15T20:22:57.910Z,96963.78
2022-12-15T20:25:28.519Z,96957.91
2022-12-15T20:27:55.775Z,96960.50
2022-12-15T20:30:35.267Z,96960.50
2022-12-15T20:33:03.803Z,96956.09
2022-12-15T20:35:33.150Z,96968.50
2022-12-15T20:38:02.606Z,96966.72
2022-12-15T20:40:30.019Z,96961.97
2022-12-15T20:42:56.791Z,96961.00
2022-12-15T20:45:26.201Z,96955.44
2022-12-15T20:47:54.705Z,96950.38
2022-12-15T20:50:35.270Z,96952.16
2022-12-15T20:53:02.482Z,96960.31
2022-12-15T20:55:29.637Z,96967.16
2022-12-15T20:57:55.959Z,96958.81
2022-12-15T21:00:22.618Z,96962.53
2022-12-15T21:02:49.863Z,96947.69
2022-12-15T21:05:24.656Z,96955.47
2022-12-15T21:07:52.021Z,96946.97
2022-12-15T21:10:20.317Z,96945.97
2022-12-15T21:12:49.020Z,96946.94
2022-12-15T21:15:20.438Z,96946.56
2022-12-15T21:18:19.674Z,96937.72
2022-12-15T21:20:41.958Z,96929.66
2022-12-15T21:23:19.689Z,96933.38
2022-12-15T21:25:47.260Z,96942.81
2022-12-15T21:28:14.320Z,96946.47
2022-12-15T21:30:40.882Z,96943.78
2022-12-15T21:33:07.263Z,96947.00
2022-12-15T21:35:33.915Z,96941.25
2022-12-15T21:38:00.858Z,96942.50
2022-12-15T21:40:28.756Z,96943.28
2022-12-15T21:42:56.039Z,96945.56
2022-12-15T21:45:24.932Z,96954.69
2022-12-15T21:48:11.109Z,96949.44
2022-12-15T21:50:38.592Z,96951.13
2022-12-15T21:53:06.205Z,96949.16
2022-12-15T21:55:32.961Z,96950.44
2022-12-15T21:57:59.366Z,96953.75
2022-12-15T22:00:26.180Z,96954.56
2022-12-15T22:02:53.514Z,96947.81
2022-12-15T22:05:32.449Z,96949.09
2022-12-15T22:08:10.474Z,96955.94
2022-12-15T22:10:37.007Z,96949.16
2022-12-15T22:13:03.679Z,96954.13
2022-12-15T22:15:30.223Z,96960.78
2022-12-15T22:17:56.616Z,96951.63
2022-12-15T22:20:24.641Z,96956.59
2022-12-15T22:22:51.438Z,96955.06
2022-12-15T22:25:21.055Z,96966.31
2022-12-15T22:27:47.957Z,96962.63
2022-12-15T22:30:27.647Z,96953.97
2022-12-15T22:32:54.376Z,96943.22
2022-12-15T22:35:25.904Z,96946.38
2022-12-15T22:37:56.171Z,96945.09
2022-12-15T22:40:24.058Z,96947.34
2022-12-15T22:42:54.874Z,96948.09
2022-12-15T22:45:23.872Z,96947.56
2022-12-15T22:47:52.195Z,96941.97
2022-12-15T22:50:21.306Z,96925.53
2022-12-15T22:52:48.466Z,96923.09
2022-12-15T22:55:19.849Z,96924.16
2022-12-15T22:58:16.373Z,96923.97
2022-12-15T23:00:42.831Z,96926.34
2022-12-15T23:03:10.997Z,96928.97
2022-12-15T23:05:41.833Z,96926.25
2022-12-15T23:08:08.481Z,96927.78
2022-12-15T23:10:53.289Z,96930.06
2022-12-15T23:13:21.032Z,96931.59
2022-12-15T23:16:06.022Z,96923.81
2022-12-15T23:18:32.428Z,96921.06
2022-12-15T23:20:59.265Z,96925.50
2022-12-15T23:23:27.816Z,96931.19
2022-12-15T23:25:55.486Z,96929.59
2022-12-15T23:28:22.109Z,96933.88
2022-12-15T23:30:52.058Z,96931.44
2022-12-15T23:33:18.825Z,96935.50
2022-12-15T23:35:45.654Z,96928.19
2022-12-15T23:38:12.697Z,96931.63
2022-12-15T23:40:52.719Z,96930.19
2022-12-15T23:43:20.565Z,96920.88
2022-12-15T23:45:55.735Z,96926.03
2022-12-15T23:48:22.055Z,96912.28
2022-12-15T23:50:48.380Z,96918.50
2022-12-15T23:53:14.728Z,96913.63
2022-12-15T23:55:41.059Z,96917.34
2022-12-15T23:58:07.615Z,96915.44
